| time (UTC) | temp C | wind direction | speed KPH | gust KPH | rain 1hr cm | rain 24hr cm | rain mn cm | humidity % | barometer mb |
| 20260503014141 | 16 | 92 | 3.2 | 4.8 | 0.00 | 0.00 | 0.00 | 43 | 1014.2 |
| 20260503013638 | 16 | 91 | 3.2 | 4.8 | 0.00 | 0.00 | 0.00 | 40 | 1014.2 |
| 20260503013136 | 17 | 91 | 3.2 | 4.8 | 0.00 | 0.00 | 0.00 | 39 | 1014.2 |
| 20260503012633 | 17 | 91 | 4.8 | 4.8 | 0.00 | 0.00 | 0.00 | 39 | 1014.3 |
| 20260503012130 | 17 | 108 | 1.6 | 1.6 | 0.00 | 0.00 | 0.00 | 38 | 1014.3 |
| 20260503011626 | 17 | 102 | 3.2 | 4.8 | 0.00 | 0.00 | 0.00 | 39 | 1014.2 |
| 20260503011124 | 17 | 104 | 3.2 | 8.0 | 0.00 | 0.00 | 0.00 | 39 | 1014.1 |
| 20260503010620 | 17 | 108 | 0.0 | 1.6 | 0.00 | 0.00 | 0.00 | 39 | 1014.4 |
| 20260503010117 | 17 | 99 | 3.2 | 4.8 | 0.00 | 0.00 | 0.00 | 38 | 1014.3 |
| 20260503005614 | 17 | 99 | 0.0 | 1.6 | 0.00 | 0.00 | 0.00 | 38 | 1014.6 |
| 20260503005112 | 17 | 107 | 0.0 | 3.2 | 0.00 | 0.00 | 0.00 | 38 | 1014.3 |
| 20260503004607 | 17 | 104 | 3.2 | 3.2 | 0.00 | 0.00 | 0.00 | 38 | 1014.4 |
| 20260503004106 | 17 | 116 | 3.2 | 8.0 | 0.00 | 0.00 | 0.00 | 38 | 1014.3 |
| 20260503003603 | 17 | 100 | 4.8 | 4.8 | 0.00 | 0.00 | 0.00 | 38 | 1014.5 |
| 20260503003059 | 17 | 99 | 0.0 | 8.0 | 0.00 | 0.00 | 0.00 | 38 | 1014.5 |
| 20260503002556 | 17 | 103 | 4.8 | 4.8 | 0.00 | 0.00 | 0.00 | 38 | 1014.7 |
| 20260503002053 | 18 | 58 | 0.0 | 3.2 | 0.00 | 0.00 | 0.00 | 36 | 1014.7 |
| 20260503001549 | 17 | 96 | 1.6 | 3.2 | 0.00 | 0.00 | 0.00 | 37 | 1014.8 |
| 20260503001047 | 17 | 93 | 4.8 | 4.8 | 0.00 | 0.00 | 0.00 | 37 | 1014.7 |
| 20260503000544 | 17 | 27 | 4.8 | 4.8 | 0.00 | 0.00 | 0.00 | 38 | 1014.8 |
| 20260503000041 | 17 | 86 | 1.6 | 3.2 | 0.00 | 0.00 | 0.00 | 37 | 1014.8 |
| 20260502235537 | 18 | 88 | 3.2 | 8.0 | 0.00 | 0.00 | 0.00 | 36 | 1014.7 |
| 20260502235036 | 18 | 52 | 3.2 | 4.8 | 0.00 | 0.00 | 0.00 | 37 | 1015.0 |
| 20260502234531 | 18 | 83 | 6.4 | 9.7 | 0.00 | 0.00 | 0.00 | 36 | 1014.8 |
| 20260502234029 | 18 | 52 | 3.2 | 3.2 | 0.00 | 0.00 | 0.00 | 35 | 1014.8 |
| 20260502233524 | 19 | 97 | 1.6 | 3.2 | 0.00 | 0.00 | 0.00 | 35 | 1015.1 |
| 20260502233021 | 18 | 261 | 1.6 | 4.8 | 0.00 | 0.00 | 0.00 | 36 | 1015.1 |
| 20260502232517 | 19 | 159 | 0.0 | 1.6 | 0.00 | 0.00 | 0.00 | 34 | 1015.2 |
| 20260502232014 | 18 | 113 | 0.0 | 3.2 | 0.00 | 0.00 | 0.00 | 35 | 1015.1 |
| 20260502231511 | 18 | 115 | 0.0 | 3.2 | 0.00 | 0.00 | 0.00 | 36 | 1015.3 |
| 20260502231009 | 17 | 59 | 3.2 | 11.3 | 0.00 | 0.00 | 0.00 | 38 | 1015.2 |
| 20260502230508 | 18 | 86 | 3.2 | 9.7 | 0.00 | 0.00 | 0.00 | 36 | 1015.1 |
| 20260502230006 | 17 | 359 | 3.2 | 9.7 | 0.00 | 0.00 | 0.00 | 37 | 1015.4 |
| 20260502225501 | 17 | 359 | 3.2 | 4.8 | 0.00 | 0.00 | 0.00 | 38 | 1015.3 |
| 20260502224958 | 17 | 214 | 1.6 | 3.2 | 0.00 | 0.00 | 0.00 | 37 | 1015.6 |
| 20260502224454 | 17 | 317 | 4.8 | 4.8 | 0.00 | 0.00 | 0.00 | 38 | 1015.5 |
| 20260502223951 | 17 | 332 | 3.2 | 8.0 | 0.00 | 0.00 | 0.00 | 37 | 1015.8 |
| 20260502223449 | 18 | 358 | 11.3 | 12.9 | 0.00 | 0.00 | 0.00 | 36 | 1015.7 |
| 20260502222947 | 18 | 347 | 8.0 | 14.5 | 0.00 | 0.00 | 0.00 | 36 | 1015.7 |
| 20260502222444 | 18 | 7 | 4.8 | 9.7 | 0.00 | 0.00 | 0.00 | 36 | 1016.1 |
| 20260502221939 | 18 | 317 | 9.7 | 12.9 | 0.00 | 0.00 | 0.00 | 37 | 1016.1 |
| 20260502221436 | 18 | 2 | 11.3 | 16.1 | 0.00 | 0.00 | 0.00 | 38 | 1016.2 |
| 20260502220933 | 18 | 115 | 1.6 | 1.6 | 0.00 | 0.00 | 0.00 | 34 | 1016.1 |
| 20260502220429 | 17 | 107 | 0.0 | 3.2 | 0.00 | 0.00 | 0.00 | 37 | 1016.3 |
| 20260502215925 | 16 | 119 | 6.4 | 9.7 | 0.00 | 0.00 | 0.00 | 38 | 1016.4 |
| 20260502215423 | 16 | 105 | 6.4 | 8.0 | 0.00 | 0.00 | 0.00 | 38 | 1016.4 |
| 20260502214920 | 16 | 324 | 1.6 | 8.0 | 0.00 | 0.00 | 0.00 | 38 | 1016.5 |
| 20260502214416 | 17 | 294 | 9.7 | 12.9 | 0.00 | 0.00 | 0.00 | 39 | 1016.5 |
| 20260502213914 | 17 | 288 | 8.0 | 11.3 | 0.00 | 0.00 | 0.00 | 39 | 1016.5 |
| 20260502213410 | 16 | 29 | 1.6 | 8.0 | 0.00 | 0.00 | 0.00 | 38 | 1016.6 |
| 20260502212909 | 17 | 13 | 6.4 | 8.0 | 0.00 | 0.00 | 0.00 | 39 | 1016.7 |
| 20260502212408 | 17 | 1 | 9.7 | 12.9 | 0.00 | 0.00 | 0.00 | 37 | 1016.5 |
| 20260502211905 | 17 | 355 | 8.0 | 11.3 | 0.00 | 0.00 | 0.00 | 36 | 1016.7 |
| 20260502211400 | 18 | 97 | 6.4 | 9.7 | 0.00 | 0.00 | 0.00 | 34 | 1016.7 |
| 20260502210858 | 17 | 101 | 1.6 | 9.7 | 0.00 | 0.00 | 0.00 | 36 | 1016.9 |
| 20260502210354 | 18 | 95 | 4.8 | 11.3 | 0.00 | 0.00 | 0.00 | 35 | 1016.8 |
| 20260502205852 | 18 | 23 | 4.8 | 11.3 | 0.00 | 0.00 | 0.00 | 36 | 1016.9 |
| 20260502205347 | 19 | 7 | 4.8 | 4.8 | 0.00 | 0.00 | 0.00 | 33 | 1017.0 |
| 20260502204845 | 19 | 49 | 3.2 | 8.0 | 0.00 | 0.00 | 0.00 | 33 | 1017.2 |
| 20260502204342 | 18 | 83 | 4.8 | 11.3 | 0.00 | 0.00 | 0.00 | 35 | 1017.2 |
| 20260502203839 | 18 | 356 | 14.5 | 16.1 | 0.00 | 0.00 | 0.00 | 35 | 1016.9 |
| 20260502203337 | 18 | 334 | 3.2 | 4.8 | 0.00 | 0.00 | 0.00 | 36 | 1016.9 |
| 20260502202832 | 18 | 356 | 9.7 | 11.3 | 0.00 | 0.00 | 0.00 | 35 | 1017.4 |
| 20260502202330 | 17 | 0 | 6.4 | 14.5 | 0.00 | 0.00 | 0.00 | 38 | 1017.2 |
| 20260502201828 | 17 | 334 | 11.3 | 16.1 | 0.00 | 0.00 | 0.00 | 38 | 1017.3 |
| 20260502201323 | 16 | 18 | 3.2 | 11.3 | 0.00 | 0.00 | 0.00 | 38 | 1017.3 |
| 20260502200820 | 17 | 288 | 1.6 | 3.2 | 0.00 | 0.00 | 0.00 | 39 | 1017.5 |
| 20260502200316 | 17 | 309 | 6.4 | 9.7 | 0.00 | 0.00 | 0.00 | 37 | 1017.4 |
| 20260502195814 | 17 | 281 | 6.4 | 9.7 | 0.00 | 0.00 | 0.00 | 38 | 1017.6 |
| 20260502195310 | 16 | 103 | 0.0 | 1.6 | 0.00 | 0.00 | 0.00 | 37 | 1017.4 |
| 20260502194807 | 16 | 286 | 1.6 | 4.8 | 0.00 | 0.00 | 0.00 | 40 | 1017.8 |
| 20260502194304 | 16 | 343 | 9.7 | 11.3 | 0.00 | 0.00 | 0.00 | 39 | 1017.8 |
| 20260502193800 | 16 | 11 | 12.9 | 16.1 | 0.00 | 0.00 | 0.00 | 39 | 1017.8 |
| 20260502193257 | 17 | 79 | 3.2 | 3.2 | 0.00 | 0.00 | 0.00 | 38 | 1017.7 |
| 20260502192752 | 16 | 72 | 3.2 | 8.0 | 0.00 | 0.00 | 0.00 | 38 | 1017.8 |
| 20260502192249 | 16 | 276 | 4.8 | 9.7 | 0.00 | 0.00 | 0.00 | 40 | 1018.0 |
| 20260502191746 | 15 | 11 | 4.8 | 11.3 | 0.00 | 0.00 | 0.00 | 40 | 1018.0 |
| 20260502191244 | 16 | 306 | 12.9 | 16.1 | 0.00 | 0.00 | 0.00 | 42 | 1018.3 |
| 20260502190741 | 15 | 12 | 4.8 | 9.7 | 0.00 | 0.00 | 0.00 | 42 | 1018.0 |
| 20260502190239 | 15 | 350 | 8.0 | 11.3 | 0.00 | 0.00 | 0.00 | 42 | 1018.3 |
| 20260502185738 | 15 | 328 | 6.4 | 12.9 | 0.00 | 0.00 | 0.00 | 42 | 1018.4 |
| 20260502185235 | 15 | 4 | 9.7 | 11.3 | 0.00 | 0.00 | 0.00 | 43 | 1018.4 |
| 20260502184732 | 15 | 10 | 11.3 | 14.5 | 0.00 | 0.00 | 0.00 | 42 | 1018.6 |
| 20260502184227 | 16 | 341 | 4.8 | 8.0 | 0.00 | 0.00 | 0.00 | 41 | 1018.4 |
| 20260502183724 | 15 | 331 | 8.0 | 11.3 | 0.00 | 0.00 | 0.00 | 42 | 1018.5 |
| 20260502183220 | 15 | 351 | 17.7 | 20.9 | 0.00 | 0.00 | 0.00 | 44 | 1018.6 |
| 20260502182716 | 15 | 347 | 8.0 | 12.9 | 0.00 | 0.00 | 0.00 | 44 | 1018.6 |
| 20260502182212 | 15 | 356 | 16.1 | 20.9 | 0.00 | 0.00 | 0.00 | 45 | 1018.4 |
| 20260502181709 | 15 | 334 | 11.3 | 17.7 | 0.00 | 0.00 | 0.00 | 49 | 1018.5 |
| 20260502181208 | 15 | 357 | 19.3 | 22.5 | 0.00 | 0.00 | 0.00 | 48 | 1018.7 |
| 20260502180705 | 14 | 338 | 14.5 | 20.9 | 0.00 | 0.00 | 0.00 | 49 | 1018.6 |
| 20260502180202 | 15 | 354 | 14.5 | 24.1 | 0.00 | 0.00 | 0.00 | 50 | 1018.7 |
| 20260502170126 | 14 | 309 | 17.7 | 20.9 | 0.00 | 0.00 | 0.00 | 51 | 1018.6 |
| 20260502164113 | 15 | 295 | 19.3 | 25.7 | 0.00 | 0.00 | 0.00 | 49 | 1018.6 |
| 20260502163609 | 14 | 328 | 11.3 | 22.5 | 0.00 | 0.00 | 0.00 | 51 | 1018.6 |
| 20260502163105 | 15 | 316 | 14.5 | 20.9 | 0.00 | 0.00 | 0.00 | 51 | 1018.5 |
| 20260502162602 | 15 | 311 | 19.3 | 24.1 | 0.00 | 0.00 | 0.00 | 50 | 1018.5 |
| 20260502162059 | 14 | 312 | 19.3 | 27.4 | 0.00 | 0.00 | 0.00 | 51 | 1018.5 |
| 20260502161556 | 13 | 308 | 20.9 | 27.4 | 0.00 | 0.00 | 0.00 | 52 | 1018.5 |
| 20260502161054 | 13 | 333 | 16.1 | 22.5 | 0.00 | 0.00 | 0.00 | 51 | 1018.6 |
| 20260502160552 | 13 | 314 | 16.1 | 24.1 | 0.00 | 0.00 | 0.00 | 52 | 1018.5 |
| 20260502152005 | 12 | 326 | 16.1 | 25.7 | 0.00 | 0.00 | 0.00 | 55 | 1018.7 |
| 20260502151501 | 12 | 326 | 19.3 | 25.7 | 0.00 | 0.00 | 0.00 | 55 | 1018.8 |
| 20260502150959 | 12 | 335 | 12.9 | 17.7 | 0.00 | 0.00 | 0.00 | 56 | 1018.7 |
| 20260502150456 | 12 | 312 | 19.3 | 27.4 | 0.00 | 0.00 | 0.00 | 55 | 1018.6 |
| 20260502130341 | 7 | 318 | 0.0 | 8.0 | 0.00 | 0.00 | 0.00 | 70 | 1018.3 |
| 20260502123324 | 6 | 323 | 0.0 | 0.0 | 0.00 | 0.00 | 0.00 | 75 | 1017.9 |
| 20260502122821 | 5 | 311 | 4.8 | 8.0 | 0.00 | 0.00 | 0.00 | 76 | 1017.6 |
| 20260502122316 | 5 | 312 | 0.0 | 0.0 | 0.00 | 0.00 | 0.00 | 76 | 1017.6 |
| 20260502121815 | 5 | 327 | 0.0 | 0.0 | 0.00 | 0.00 | 0.00 | 76 | 1017.7 |
| 20260502121312 | 5 | 315 | 0.0 | 0.0 | 0.00 | 0.00 | 0.00 | 75 | 1017.6 |
| 20260502120809 | 5 | 310 | 0.0 | 0.0 | 0.00 | 0.00 | 0.00 | 76 | 1017.4 |
| 20260502120305 | 5 | 318 | 0.0 | 0.0 | 0.00 | 0.00 | 0.00 | 76 | 1017.5 |
| 20260502115803 | 5 | 315 | 0.0 | 0.0 | 0.00 | 0.00 | 0.00 | 76 | 1017.4 |
| 20260502115300 | 5 | 314 | 0.0 | 0.0 | 0.00 | 0.00 | 0.00 | 74 | 1017.6 |
| 20260502114756 | 5 | 333 | 3.2 | 8.0 | 0.00 | 0.00 | 0.00 | 74 | 1017.6 |
| 20260502114253 | 6 | 331 | 4.8 | 8.0 | 0.00 | 0.00 | 0.00 | 71 | 1017.5 |
| 20260502113750 | 5 | 334 | 1.6 | 8.0 | 0.00 | 0.00 | 0.00 | 73 | 1017.3 |
| 20260502113248 | 5 | 289 | 0.0 | 0.0 | 0.00 | 0.00 | 0.00 | 73 | 1017.2 |
| 20260502112746 | 6 | 283 | 3.2 | 3.2 | 0.00 | 0.00 | 0.00 | 71 | 1017.4 |
| 20260502112243 | 6 | 296 | 3.2 | 4.8 | 0.00 | 0.00 | 0.00 | 70 | 1017.5 |
| 20260502111740 | 7 | 291 | 6.4 | 9.7 | 0.00 | 0.00 | 0.00 | 69 | 1017.4 |
| 20260502111238 | 7 | 290 | 6.4 | 9.7 | 0.00 | 0.00 | 0.00 | 66 | 1017.5 |
| 20260502110735 | 7 | 313 | 6.4 | 11.3 | 0.00 | 0.00 | 0.00 | 67 | 1017.4 |
| 20260502110232 | 7 | 326 | 6.4 | 9.7 | 0.00 | 0.00 | 0.00 | 65 | 1017.3 |
| 20260502105731 | 7 | 335 | 6.4 | 8.0 | 0.00 | 0.00 | 0.00 | 66 | 1017.2 |
| 20260502105226 | 7 | 334 | 4.8 | 8.0 | 0.00 | 0.00 | 0.00 | 66 | 1017.4 |
| 20260502104724 | 7 | 333 | 6.4 | 9.7 | 0.00 | 0.00 | 0.00 | 66 | 1017.0 |
| 20260502104222 | 7 | 315 | 8.0 | 9.7 | 0.00 | 0.00 | 0.00 | 66 | 1016.7 |
| 20260502103719 | 6 | 326 | 4.8 | 4.8 | 0.00 | 0.00 | 0.00 | 66 | 1016.6 |
| 20260502103217 | 6 | 338 | 6.4 | 8.0 | 0.00 | 0.00 | 0.00 | 66 | 1016.5 |
| 20260502102713 | 7 | 349 | 4.8 | 8.0 | 0.00 | 0.00 | 0.00 | 65 | 1016.4 |
| 20260502102210 | 7 | 318 | 0.0 | 0.0 | 0.00 | 0.00 | 0.00 | 64 | 1016.3 |
| 20260502101708 | 7 | 325 | 4.8 | 4.8 | 0.00 | 0.00 | 0.00 | 62 | 1016.3 |
| 20260502101206 | 8 | 304 | 0.0 | 0.0 | 0.00 | 0.00 | 0.00 | 63 | 1016.5 |
| 20260502100704 | 7 | 295 | 0.0 | 0.0 | 0.00 | 0.00 | 0.00 | 62 | 1016.5 |
| 20260502100202 | 8 | 278 | 0.0 | 0.0 | 0.00 | 0.00 | 0.00 | 60 | 1016.3 |
| 20260502091136 | 11 | 77 | 8.0 | 11.3 | 0.00 | 0.00 | 0.00 | 47 | 1015.2 |
| 20260502090633 | 10 | 114 | 14.5 | 20.9 | 0.00 | 0.00 | 0.00 | 51 | 1015.2 |
| 20260502090130 | 10 | 59 | 8.0 | 12.9 | 0.00 | 0.00 | 0.00 | 51 | 1015.4 |
| 20260502071528 | 8 | 318 | 6.4 | 8.0 | 0.00 | 0.00 | 0.00 | 52 | 1014.0 |
| 20260502071026 | 8 | 307 | 6.4 | 8.0 | 0.00 | 0.00 | 0.00 | 51 | 1013.9 |
| 20260502070524 | 8 | 315 | 6.4 | 8.0 | 0.00 | 0.00 | 0.00 | 52 | 1013.9 |
| 20260502070022 | 9 | 321 | 4.8 | 4.8 | 0.00 | 0.00 | 0.00 | 50 | 1013.7 |
| 20260502065520 | 9 | 321 | 4.8 | 4.8 | 0.00 | 0.00 | 0.00 | 51 | 1013.6 |
| 20260502065017 | 9 | 313 | 6.4 | 9.7 | 0.00 | 0.00 | 0.00 | 52 | 1013.7 |
| 20260502064516 | 9 | 320 | 6.4 | 8.0 | 0.00 | 0.00 | 0.00 | 50 | 1013.7 |
| 20260502064012 | 9 | 329 | 6.4 | 9.7 | 0.00 | 0.00 | 0.00 | 52 | 1014.0 |
| 20260502063510 | 9 | 313 | 6.4 | 9.7 | 0.00 | 0.00 | 0.00 | 50 | 1014.1 |
| 20260502063008 | 9 | 324 | 6.4 | 9.7 | 0.00 | 0.00 | 0.00 | 52 | 1014.0 |
| 20260502062504 | 9 | 330 | 4.8 | 8.0 | 0.00 | 0.00 | 0.00 | 52 | 1014.1 |
| 20260502062003 | 8 | 333 | 4.8 | 8.0 | 0.00 | 0.00 | 0.00 | 55 | 1014.0 |
| 20260502061500 | 8 | 334 | 4.8 | 8.0 | 0.00 | 0.00 | 0.00 | 55 | 1013.9 |
| 20260502060956 | 8 | 313 | 6.4 | 9.7 | 0.00 | 0.00 | 0.00 | 54 | 1013.9 |
| 20260502060452 | 8 | 317 | 6.4 | 8.0 | 0.00 | 0.00 | 0.00 | 56 | 1014.0 |
| 20260502055949 | 8 | 321 | 4.8 | 8.0 | 0.00 | 0.00 | 0.00 | 57 | 1014.0 |
| 20260502055446 | 8 | 303 | 4.8 | 8.0 | 0.00 | 0.00 | 0.00 | 57 | 1013.7 |
| 20260502054940 | 7 | 317 | 4.8 | 4.8 | 0.00 | 0.00 | 0.00 | 58 | 1013.7 |
| 20260502054438 | 7 | 339 | 4.8 | 8.0 | 0.00 | 0.00 | 0.00 | 60 | 1013.9 |
| 20260502053935 | 7 | 336 | 8.0 | 8.0 | 0.00 | 0.00 | 0.00 | 59 | 1014.0 |
| 20260502053432 | 7 | 326 | 4.8 | 4.8 | 0.00 | 0.00 | 0.00 | 61 | 1013.9 |
| 20260502052930 | 7 | 319 | 6.4 | 8.0 | 0.00 | 0.00 | 0.00 | 63 | 1014.0 |
| 20260502052428 | 7 | 288 | 3.2 | 3.2 | 0.00 | 0.00 | 0.00 | 61 | 1013.9 |
| 20260502051926 | 7 | 326 | 4.8 | 9.7 | 0.00 | 0.00 | 0.00 | 61 | 1014.0 |
| 20260502051424 | 7 | 305 | 0.0 | 0.0 | 0.00 | 0.00 | 0.00 | 61 | 1014.1 |
| 20260502050920 | 8 | 252 | 1.6 | 3.2 | 0.00 | 0.00 | 0.00 | 60 | 1014.0 |
| 20260502050417 | 8 | 302 | 4.8 | 4.8 | 0.00 | 0.00 | 0.00 | 56 | 1013.9 |
| 20260502045914 | 7 | 325 | 6.4 | 8.0 | 0.00 | 0.00 | 0.00 | 59 | 1013.7 |
| 20260502045411 | 7 | 333 | 6.4 | 8.0 | 0.00 | 0.00 | 0.00 | 60 | 1014.0 |
| 20260502044908 | 7 | 334 | 6.4 | 9.7 | 0.00 | 0.00 | 0.00 | 60 | 1014.0 |
| 20260502044404 | 8 | 320 | 8.0 | 9.7 | 0.00 | 0.00 | 0.00 | 59 | 1013.7 |
| 20260502043901 | 8 | 327 | 8.0 | 9.7 | 0.00 | 0.00 | 0.00 | 57 | 1013.5 |
| 20260502043359 | 9 | 328 | 4.8 | 8.0 | 0.00 | 0.00 | 0.00 | 55 | 1013.7 |
| 20260502042858 | 8 | 323 | 6.4 | 8.0 | 0.00 | 0.00 | 0.00 | 57 | 1013.6 |
| 20260502042355 | 8 | 289 | 4.8 | 4.8 | 0.00 | 0.00 | 0.00 | 58 | 1013.6 |
| 20260502041853 | 10 | 321 | 4.8 | 8.0 | 0.00 | 0.00 | 0.00 | 55 | 1013.7 |
| 20260502041350 | 11 | 341 | 4.8 | 4.8 | 0.00 | 0.00 | 0.00 | 45 | 1013.4 |
| 20260502040847 | 10 | 343 | 4.8 | 8.0 | 0.00 | 0.00 | 0.00 | 53 | 1013.6 |
| 20260502040344 | 10 | 278 | 4.8 | 4.8 | 0.00 | 0.00 | 0.00 | 53 | 1013.6 |
| 20260502035840 | 10 | 296 | 3.2 | 3.2 | 0.00 | 0.00 | 0.00 | 52 | 1013.6 |
| 20260502035337 | 11 | 340 | 4.8 | 4.8 | 0.00 | 0.00 | 0.00 | 51 | 1013.4 |
| 20260502034834 | 11 | 312 | 4.8 | 4.8 | 0.00 | 0.00 | 0.00 | 52 | 1013.5 |
| 20260502034332 | 11 | 261 | 1.6 | 3.2 | 0.00 | 0.00 | 0.00 | 48 | 1013.4 |
| 20260502033830 | 11 | 152 | 1.6 | 1.6 | 0.00 | 0.00 | 0.00 | 47 | 1013.4 |
| 20260502033328 | 11 | 232 | 1.6 | 3.2 | 0.00 | 0.00 | 0.00 | 46 | 1013.1 |
| 20260502032824 | 12 | 196 | 1.6 | 3.2 | 0.00 | 0.00 | 0.00 | 47 | 1013.4 |
| 20260502032320 | 16 | 101 | 0.0 | 3.2 | 0.00 | 0.00 | 0.00 | 31 | 1013.2 |
| 20260502031818 | 16 | 69 | 3.2 | 3.2 | 0.00 | 0.00 | 0.00 | 32 | 1013.0 |
| 20260502031316 | 16 | 79 | 3.2 | 4.8 | 0.00 | 0.00 | 0.00 | 31 | 1013.2 |
| 20260502030815 | 16 | 59 | 4.8 | 8.0 | 0.00 | 0.00 | 0.00 | 31 | 1013.0 |
| 20260502030312 | 16 | 66 | 4.8 | 4.8 | 0.00 | 0.00 | 0.00 | 31 | 1012.9 |
| 20260502025809 | 16 | 69 | 1.6 | 4.8 | 0.00 | 0.00 | 0.00 | 33 | 1012.8 |
| 20260502025307 | 16 | 17 | 6.4 | 11.3 | 0.00 | 0.00 | 0.00 | 36 | 1012.5 |
| 20260502024805 | 16 | 19 | 8.0 | 11.3 | 0.00 | 0.00 | 0.00 | 35 | 1012.9 |
| 20260502024302 | 16 | 53 | 6.4 | 9.7 | 0.00 | 0.00 | 0.00 | 33 | 1012.8 |
| 20260502023800 | 16 | 11 | 6.4 | 9.7 | 0.00 | 0.00 | 0.00 | 33 | 1012.9 |
| 20260502023257 | 16 | 348 | 8.0 | 9.7 | 0.00 | 0.00 | 0.00 | 35 | 1012.9 |
| 20260502022755 | 16 | 359 | 6.4 | 8.0 | 0.00 | 0.00 | 0.00 | 37 | 1012.4 |
| 20260502022251 | 17 | 21 | 6.4 | 8.0 | 0.00 | 0.00 | 0.00 | 34 | 1012.5 |
| 20260502021748 | 18 | 70 | 1.6 | 3.2 | 0.00 | 0.00 | 0.00 | 30 | 1012.8 |
| 20260502021245 | 18 | 55 | 3.2 | 4.8 | 0.00 | 0.00 | 0.00 | 29 | 1012.6 |
| 20260502020743 | 18 | 25 | 4.8 | 4.8 | 0.00 | 0.00 | 0.00 | 29 | 1012.6 |
| 20260502020240 | 19 | 6 | 6.4 | 8.0 | 0.00 | 0.00 | 0.00 | 27 | 1012.4 |
| 20260502015738 | 18 | 18 | 4.8 | 4.8 | 0.00 | 0.00 | 0.00 | 28 | 1012.4 |
| 20260502015233 | 19 | 18 | 4.8 | 4.8 | 0.00 | 0.00 | 0.00 | 26 | 1012.3 |
| 20260502014731 | 20 | 47 | 4.8 | 8.0 | 0.00 | 0.00 | 0.00 | 25 | 1012.4 |
| 20260502014228 | 19 | 27 | 6.4 | 8.0 | 0.00 | 0.00 | 0.00 | 28 | 1012.4 |